createdAt,value
2022-12-07T00:07:07.363Z,8.90
2022-12-07T00:22:08.634Z,9.00
2022-12-07T00:37:09.268Z,9.90
2022-12-07T00:52:10.002Z,9.10
2022-12-07T01:07:11.222Z,9.10
2022-12-07T01:22:12.443Z,8.40
2022-12-07T01:37:13.725Z,8.00
2022-12-07T01:52:14.833Z,7.70
2022-12-07T02:07:16.040Z,7.50
2022-12-07T02:22:16.638Z,7.00
2022-12-07T02:37:17.157Z,8.50
2022-12-07T02:52:16.979Z,7.50
2022-12-07T03:07:17.077Z,8.50
2022-12-07T03:22:17.773Z,9.40
2022-12-07T03:37:19.622Z,10.40
2022-12-07T03:52:19.723Z,12.40
2022-12-07T04:07:20.366Z,17.10
2022-12-07T04:22:20.958Z,14.90
2022-12-07T04:37:21.222Z,19.90
2022-12-07T04:52:21.322Z,21.70
2022-12-07T05:07:21.483Z,22.00
2022-12-07T05:22:21.507Z,22.60
2022-12-07T05:37:21.783Z,20.90
2022-12-07T05:52:21.997Z,22.90
2022-12-07T06:07:22.165Z,18.80
2022-12-07T06:22:22.321Z,19.10
2022-12-07T06:37:22.611Z,18.40
2022-12-07T06:52:22.845Z,16.20
2022-12-07T07:07:23.171Z,15.10
2022-12-07T07:22:23.331Z,15.70
2022-12-07T07:37:23.551Z,10.10
2022-12-07T07:52:23.760Z,7.60
2022-12-07T08:07:23.966Z,7.10
2022-12-07T08:22:24.289Z,7.70
2022-12-07T08:37:24.612Z,5.20
2022-12-07T08:52:25.853Z,4.50
2022-12-07T09:07:26.143Z,3.10
2022-12-07T09:22:26.317Z,3.00
2022-12-07T09:37:26.514Z,2.30
2022-12-07T09:52:26.725Z,1.80
2022-12-07T10:07:26.858Z,2.00
2022-12-07T10:22:31.740Z,1.50
2022-12-07T10:37:32.185Z,2.80
2022-12-07T10:52:32.367Z,3.10
2022-12-07T11:07:32.501Z,3.50
2022-12-07T11:22:32.677Z,3.60
2022-12-07T11:37:36.468Z,5.50
2022-12-07T11:52:37.888Z,4.00
2022-12-07T12:22:43.317Z,5.50
2022-12-07T12:37:43.516Z,3.60
2022-12-07T12:52:48.928Z,5.70
2022-12-07T13:07:49.055Z,3.90
2022-12-07T13:22:49.167Z,3.00
2022-12-07T13:37:50.684Z,4.60
2022-12-07T13:52:50.900Z,2.80
2022-12-07T14:07:51.182Z,2.50
2022-12-07T14:22:51.283Z,8.50
2022-12-07T14:37:51.491Z,3.90
2022-12-07T15:07:56.786Z,2.50
2022-12-07T15:22:57.018Z,3.20
2022-12-07T15:37:57.388Z,4.80
2022-12-07T15:52:57.561Z,1.40
2022-12-07T16:07:58.367Z,2.70
2022-12-07T16:22:58.992Z,3.20
2022-12-07T16:37:59.357Z,7.00
2022-12-07T16:52:59.517Z,3.60
2022-12-07T17:07:59.802Z,2.50
2022-12-07T17:22:59.896Z,20.00
2022-12-07T17:38:00.198Z,3.80
2022-12-07T17:53:00.339Z,9.70
2022-12-07T18:08:00.626Z,4.80
2022-12-07T18:23:00.781Z,4.60
2022-12-07T18:38:00.966Z,13.20
2022-12-07T18:53:01.154Z,3.70
2022-12-07T19:08:01.446Z,3.30
2022-12-07T19:23:01.639Z,9.90
2022-12-07T19:38:01.770Z,2.80
2022-12-07T19:53:01.901Z,3.20
2022-12-07T20:08:02.097Z,4.20
2022-12-07T20:23:02.282Z,4.30
2022-12-07T20:38:02.994Z,3.60
2022-12-07T20:53:03.897Z,4.50
2022-12-07T21:08:04.052Z,9.00
2022-12-07T21:23:04.086Z,5.00
2022-12-07T21:38:04.390Z,6.90
2022-12-07T21:53:04.475Z,8.10
2022-12-07T22:08:04.937Z,7.60
2022-12-07T22:23:04.941Z,9.40
2022-12-07T22:38:09.987Z,10.30
2022-12-07T22:53:11.303Z,10.00
2022-12-07T23:08:11.653Z,9.50
2022-12-07T23:23:12.281Z,10.20
2022-12-07T23:38:12.930Z,9.90
2022-12-07T23:53:13.144Z,8.80
